Time;durP1;ratioP1;P1;durP2;ratioP2;P2;SDS_P1;SDS_P2;PMS_P1;PMS_P2;Temp;Humidity;BMP_temperature;BMP_pressure;BME280_temperature;BME280_humidity;BME280_pressure;Samples;Min_cycle;Max_cycle;Signal;HPM_P1;HPM_P2
2024/02/07 00:02:12;;;;;;;4.28;1.60;;;6.30;99.90;;;;;;5073672;28;20709;-72
2024/02/07 00:04:39;;;;;;;2.85;0.75;;;6.30;99.90;;;;;;5073298;28;20723;-74
2024/02/07 00:07:06;;;;;;;4.45;1.10;;;6.20;99.90;;;;;;5075077;28;20249;-73
2024/02/07 00:09:33;;;;;;;6.25;1.27;;;6.20;99.90;;;;;;5073259;28;20242;-74
2024/02/07 00:12:00;;;;;;;6.82;1.77;;;6.20;99.90;;;;;;5077195;28;20222;-71
2024/02/07 00:14:27;;;;;;;4.97;1.35;;;6.10;99.90;;;;;;5086362;28;20211;-72
2024/02/07 00:16:56;;;;;;;3.05;1.10;;;6.20;99.90;;;;;;5079957;28;20204;-74
2024/02/07 00:19:24;;;;;;;11.15;4.63;;;6.10;99.90;;;;;;5081881;28;20195;-73
2024/02/07 00:21:51;;;;;;;4.47;1.15;;;6.20;99.90;;;;;;5072934;28;20226;-71
2024/02/07 00:24:18;;;;;;;10.52;1.92;;;6.10;99.90;;;;;;5081234;28;20669;-74
2024/02/07 00:26:45;;;;;;;7.40;2.20;;;6.00;99.90;;;;;;5081368;28;20199;-73
2024/02/07 00:29:12;;;;;;;6.78;2.35;;;6.10;99.90;;;;;;5075741;28;20258;-73
2024/02/07 00:31:39;;;;;;;3.55;1.05;;;6.20;99.90;;;;;;5072740;28;20199;-73
2024/02/07 00:34:05;;;;;;;4.55;1.58;;;6.10;99.90;;;;;;5073269;28;20247;-74
2024/02/07 00:36:34;;;;;;;3.90;1.10;;;6.10;99.90;;;;;;5076406;28;21048;-74
2024/02/07 00:39:01;;;;;;;6.10;1.15;;;6.20;99.90;;;;;;5081288;28;20244;-76
2024/02/07 00:41:28;;;;;;;6.18;1.88;;;6.10;99.90;;;;;;5078298;28;20199;-71
2024/02/07 00:43:55;;;;;;;5.47;1.10;;;6.20;99.90;;;;;;5080966;28;20250;-73
2024/02/07 00:46:22;;;;;;;4.85;2.13;;;6.20;99.90;;;;;;5072516;28;20211;-74
2024/02/07 00:48:49;;;;;;;10.80;2.50;;;6.20;99.90;;;;;;5082612;28;20742;-73
2024/02/07 00:51:16;;;;;;;6.10;1.58;;;6.30;99.90;;;;;;5076254;28;20555;-72
2024/02/07 00:53:44;;;;;;;7.25;2.47;;;6.20;99.90;;;;;;5083743;28;20234;-73
2024/02/07 00:56:11;;;;;;;10.95;1.75;;;6.20;99.90;;;;;;5076379;28;20249;-76
2024/02/07 00:58:39;;;;;;;5.45;1.33;;;6.30;99.90;;;;;;5078479;28;20195;-72
2024/02/07 01:01:06;;;;;;;8.40;1.10;;;6.20;99.90;;;;;;5077047;28;20276;-76
2024/02/07 01:03:33;;;;;;;15.45;4.88;;;6.20;99.90;;;;;;5072350;28;20237;-74
2024/02/07 01:06:00;;;;;;;8.80;1.25;;;6.20;99.90;;;;;;5072212;28;20199;-72
2024/02/07 01:08:27;;;;;;;7.82;2.05;;;6.20;99.90;;;;;;5080169;28;20227;-75
2024/02/07 01:10:56;;;;;;;12.07;1.92;;;6.20;99.90;;;;;;5080355;28;20199;-72
2024/02/07 01:13:23;;;;;;;5.60;1.30;;;6.30;99.90;;;;;;5075821;28;20635;-72
2024/02/07 01:15:50;;;;;;;8.00;1.55;;;6.30;99.90;;;;;;5073072;28;20207;-76
2024/02/07 01:18:17;;;;;;;5.70;1.85;;;6.30;99.90;;;;;;5074419;28;20211;-74
2024/02/07 01:20:44;;;;;;;10.95;1.65;;;6.30;99.90;;;;;;5074236;28;20211;-76
2024/02/07 01:23:11;;;;;;;7.20;1.55;;;6.30;99.90;;;;;;5076371;28;20257;-74
2024/02/07 01:25:38;;;;;;;6.47;1.58;;;6.30;99.90;;;;;;5085202;28;20694;-72
2024/02/07 01:28:08;;;;;;;4.82;1.98;;;6.30;99.90;;;;;;5078273;28;20221;-72
2024/02/07 01:30:35;;;;;;;10.18;1.65;;;6.20;99.90;;;;;;5079916;28;20253;-72
2024/02/07 01:33:02;;;;;;;4.47;1.40;;;6.30;99.90;;;;;;5089334;28;20673;-73
2024/02/07 01:35:31;;;;;;;8.63;2.15;;;6.20;99.90;;;;;;5073920;28;20207;-71
2024/02/07 01:38:04;;;;;;;7.70;2.35;;;6.20;99.90;;;;;;5079487;28;20191;-71
2024/02/07 01:40:42;;;;;;;7.85;2.35;;;6.30;99.90;;;;;;5076851;28;20199;-71
2024/02/07 01:43:11;;;;;;;6.43;2.08;;;6.30;99.90;;;;;;5080616;28;20286;-74
2024/02/07 01:45:38;;;;;;;7.68;1.42;;;6.30;99.90;;;;;;5077202;28;20282;-73
2024/02/07 01:48:07;;;;;;;7.20;1.90;;;6.20;99.90;;;;;;5073243;28;20259;-73
2024/02/07 01:50:35;;;;;;;6.03;1.83;;;6.30;99.90;;;;;;5076703;28;20207;-73
2024/02/07 01:53:04;;;;;;;12.93;2.17;;;6.30;99.90;;;;;;5078975;28;20246;-73
2024/02/07 01:55:32;;;;;;;10.35;1.52;;;6.20;99.90;;;;;;5075288;28;20199;-71
2024/02/07 01:58:00;;;;;;;6.57;1.25;;;6.30;99.90;;;;;;5084015;28;20224;-71
2024/02/07 02:00:31;;;;;;;7.55;1.30;;;6.30;99.90;;;;;;5080865;28;20748;-72
2024/02/07 02:02:59;;;;;;;10.93;2.03;;;6.30;99.90;;;;;;5090195;28;20708;-73
2024/02/07 02:05:26;;;;;;;9.65;4.18;;;6.30;99.90;;;;;;5080425;28;20291;-71
2024/02/07 02:07:53;;;;;;;6.53;1.58;;;6.30;99.90;;;;;;5081475;28;20295;-73
2024/02/07 02:10:20;;;;;;;10.77;1.65;;;6.30;99.90;;;;;;5079762;28;20265;-72
2024/02/07 02:12:47;;;;;;;6.22;1.88;;;6.30;99.90;;;;;;5086763;28;20218;-71
2024/02/07 02:15:14;;;;;;;7.63;1.80;;;6.40;99.90;;;;;;5081167;28;20648;-72
2024/02/07 02:17:43;;;;;;;11.52;1.85;;;6.50;99.90;;;;;;5078098;28;20199;-75
2024/02/07 02:20:11;;;;;;;6.78;1.75;;;6.40;99.90;;;;;;5081116;28;20229;-75
2024/02/07 02:23:12;;;;;;;6.15;1.85;;;6.40;99.90;;;;;;5075134;28;20230;-73
2024/02/07 02:26:05;;;;;;;4.63;1.50;;;6.40;99.90;;;;;;5089010;28;20286;-73
2024/02/07 02:28:52;;;;;;;10.30;2.17;;;6.40;99.90;;;;;;5086150;28;20218;-73
2024/02/07 02:31:22;;;;;;;5.78;2.63;;;6.30;99.90;;;;;;5074210;28;20293;-72
2024/02/07 02:33:56;;;;;;;5.18;2.03;;;6.40;99.90;;;;;;5082073;28;20228;-73
2024/02/07 02:36:24;;;;;;;3.55;1.50;;;6.40;99.90;;;;;;5086262;28;20286;-72
2024/02/07 02:38:52;;;;;;;7.78;1.52;;;6.40;99.90;;;;;;5088489;28;20310;-70
2024/02/07 02:41:20;;;;;;;7.13;1.67;;;6.40;99.90;;;;;;5083353;28;20195;-71
2024/02/07 02:43:47;;;;;;;16.15;2.05;;;6.40;99.90;;;;;;5089315;28;20219;-73
2024/02/07 02:46:14;;;;;;;6.85;2.30;;;6.40;99.90;;;;;;5075890;28;20723;-72
2024/02/07 02:48:43;;;;;;;5.63;2.00;;;6.40;99.90;;;;;;5079177;28;20228;-73
2024/02/07 02:51:10;;;;;;;11.90;1.80;;;6.40;99.90;;;;;;5088684;28;20198;-73
2024/02/07 02:53:38;;;;;;;7.50;1.48;;;6.40;99.90;;;;;;5094149;28;20302;-74
2024/02/07 02:56:06;;;;;;;5.22;1.80;;;6.40;99.90;;;;;;5076764;28;20203;-74
2024/02/07 02:58:34;;;;;;;8.98;2.40;;;6.40;99.90;;;;;;5076015;28;20304;-75
2024/02/07 03:03:57;;;;;;;9.07;1.98;;;6.30;99.90;;;;;;5062114;22;20229;-82
2024/02/07 03:16:20;;;;;;;12.05;3.08;;;6.30;99.90;;;;;;5062133;28;20667;-81
2024/02/07 03:22:06;;;;;;;12.63;1.80;;;6.40;99.90;;;;;;5064537;28;20199;-82
2024/02/07 03:24:58;;;;;;;11.70;1.48;;;6.40;99.90;;;;;;5067175;28;20263;-81
2024/02/07 03:32:03;;;;;;;7.65;1.55;;;6.50;99.90;;;;;;5067365;28;20269;-81
2024/02/07 03:37:56;;;;;;;5.80;1.90;;;6.50;99.90;;;;;;5066019;28;20204;-81
2024/02/07 03:54:04;;;;;;;16.23;3.70;;;6.50;99.90;;;;;;5045841;28;20280;-80
2024/02/07 04:03:14;;;;;;;15.45;1.88;;;6.60;99.90;;;;;;5024757;28;20300;-81
2024/02/07 04:05:58;;;;;;;15.30;1.77;;;6.60;99.90;;;;;;5068781;28;20219;-80
2024/02/07 04:08:29;;;;;;;8.05;2.50;;;6.60;99.90;;;;;;5064435;28;20254;-80
2024/02/07 05:16:13;;;;;;;9.35;3.80;;;6.80;99.90;;;;;;5066177;28;20215;-82
2024/02/07 05:18:43;;;;;;;22.83;5.38;;;6.70;99.90;;;;;;5064190;28;20734;-81
2024/02/07 05:21:11;;;;;;;12.60;4.32;;;6.80;99.90;;;;;;5069956;28;20203;-82
2024/02/07 05:23:39;;;;;;;13.88;3.50;;;6.90;99.90;;;;;;5067176;28;20203;-81
2024/02/07 05:26:07;;;;;;;26.05;3.40;;;6.90;99.90;;;;;;5065754;28;20232;-80
2024/02/07 05:28:34;;;;;;;14.95;3.58;;;6.90;99.90;;;;;;5069703;28;20224;-82
2024/02/07 05:31:01;;;;;;;16.83;5.60;;;6.80;99.90;;;;;;5064622;28;20208;-82
2024/02/07 05:33:28;;;;;;;6.82;2.95;;;6.90;99.90;;;;;;5067691;28;20196;-81
2024/02/07 05:35:55;;;;;;;16.15;4.50;;;6.90;99.90;;;;;;5069124;28;20220;-82
2024/02/07 05:38:22;;;;;;;13.75;4.38;;;6.90;99.90;;;;;;5071157;28;20211;-81
2024/02/07 05:40:50;;;;;;;15.63;4.30;;;6.90;99.90;;;;;;5068060;28;20228;-81
2024/02/07 05:43:17;;;;;;;12.55;5.43;;;6.90;99.90;;;;;;5071024;28;20212;-81
2024/02/07 05:45:44;;;;;;;18.42;4.78;;;6.90;99.90;;;;;;5070088;28;20259;-83
2024/02/07 05:48:12;;;;;;;15.95;4.32;;;6.80;99.90;;;;;;5069639;28;20204;-80
2024/02/07 05:50:39;;;;;;;14.02;4.88;;;6.80;99.90;;;;;;5070151;28;20257;-80
2024/02/07 05:53:06;;;;;;;43.08;4.95;;;6.80;99.90;;;;;;5075602;28;20234;-81
2024/02/07 05:55:33;;;;;;;13.50;4.07;;;6.70;99.90;;;;;;5071180;28;20224;-81
2024/02/07 05:58:01;;;;;;;17.52;3.45;;;6.70;99.90;;;;;;5067781;28;20200;-81
2024/02/07 06:00:28;;;;;;;20.13;3.83;;;6.70;99.90;;;;;;5066059;28;20204;-83
2024/02/07 06:02:55;;;;;;;22.60;3.60;;;6.70;99.90;;;;;;5061897;28;20212;-80
2024/02/07 06:05:23;;;;;;;13.80;3.42;;;6.70;99.90;;;;;;5062992;28;20729;-82
2024/02/07 06:07:50;;;;;;;16.42;4.65;;;6.70;99.90;;;;;;5078076;28;20184;-83
2024/02/07 06:10:20;;;;;;;11.38;3.42;;;6.70;99.90;;;;;;5072688;28;20229;-83
2024/02/07 06:12:46;;;;;;;10.70;4.35;;;6.70;99.90;;;;;;5080919;28;20202;-82
2024/02/07 06:15:15;;;;;;;14.90;3.40;;;6.70;99.90;;;;;;5085685;28;20196;-84
2024/02/07 06:17:42;;;;;;;17.85;3.42;;;6.70;99.90;;;;;;5070436;28;20435;-85
2024/02/07 06:20:10;;;;;;;28.00;5.55;;;6.70;99.90;;;;;;5074792;28;20227;-87
2024/02/07 06:23:06;;;;;;;;;;;;;;;;;;;;;
2024/02/07 06:25:34;;;;;;;18.25;3.95;;;6.70;99.90;;;;;;5074748;22;20239;-74
2024/02/07 06:28:01;;;;;;;21.13;5.35;;;6.60;99.90;;;;;;5059824;28;20644;-73
2024/02/07 06:30:29;;;;;;;13.48;4.35;;;6.60;99.90;;;;;;5056268;28;20235;-73
2024/02/07 06:32:56;;;;;;;16.73;4.07;;;6.60;99.90;;;;;;5055701;28;20259;-72
2024/02/07 06:35:23;;;;;;;13.38;3.25;;;6.60;99.90;;;;;;5054334;28;20278;-73
2024/02/07 06:37:50;;;;;;;26.77;5.05;;;6.60;99.90;;;;;;5055353;28;21020;-70
2024/02/07 06:40:17;;;;;;;12.77;3.80;;;6.60;99.90;;;;;;5056015;28;20228;-73
2024/02/07 06:42:44;;;;;;;10.32;3.35;;;6.60;99.90;;;;;;5052752;28;20220;-72
2024/02/07 06:45:11;;;;;;;13.73;4.00;;;6.60;99.90;;;;;;5052358;28;20200;-73
2024/02/07 06:47:41;;;;;;;14.93;3.65;;;6.50;99.90;;;;;;5053695;28;20641;-72
2024/02/07 06:50:08;;;;;;;15.82;4.35;;;6.60;99.90;;;;;;5053434;28;20255;-71
2024/02/07 06:52:35;;;;;;;12.52;4.05;;;6.60;99.90;;;;;;5054145;28;20260;-73
2024/02/07 06:55:02;;;;;;;23.90;5.10;;;6.60;99.90;;;;;;5053087;28;20227;-73
2024/02/07 06:57:29;;;;;;;7.45;2.55;;;6.60;99.90;;;;;;5052908;28;20265;-74
2024/02/07 06:59:57;;;;;;;16.48;5.50;;;6.60;99.90;;;;;;5053398;28;20206;-76
2024/02/07 07:02:24;;;;;;;16.42;4.80;;;6.60;99.90;;;;;;5054435;28;20224;-73
2024/02/07 07:04:52;;;;;;;24.42;3.38;;;6.50;99.90;;;;;;5053979;28;20301;-73
2024/02/07 07:07:19;;;;;;;20.85;3.40;;;6.50;99.90;;;;;;5052938;28;20252;-73
2024/02/07 07:09:46;;;;;;;15.43;3.97;;;6.50;99.90;;;;;;5053454;28;20216;-74
2024/02/07 07:12:13;;;;;;;12.60;4.05;;;6.50;99.90;;;;;;5053313;28;20216;-72
2024/02/07 07:14:41;;;;;;;11.02;3.40;;;6.40;99.90;;;;;;5053378;28;20238;-72
2024/02/07 07:17:08;;;;;;;16.70;4.03;;;6.40;99.90;;;;;;5055267;28;20234;-74
2024/02/07 07:19:35;;;;;;;12.27;2.97;;;6.40;99.90;;;;;;5054851;28;20259;-74
2024/02/07 07:22:03;;;;;;;12.45;2.95;;;6.30;99.90;;;;;;5052271;28;20573;-71
2024/02/07 07:24:30;;;;;;;15.15;3.30;;;6.30;99.90;;;;;;5053795;28;20637;-77
2024/02/07 07:26:58;;;;;;;11.40;2.83;;;6.30;99.90;;;;;;5052761;28;20246;-71
2024/02/07 07:29:25;;;;;;;17.05;3.10;;;6.30;99.90;;;;;;5053127;28;20713;-72
2024/02/07 07:31:52;;;;;;;23.17;4.43;;;6.20;99.90;;;;;;5048780;28;20692;-75
2024/02/07 07:34:19;;;;;;;26.38;6.82;;;6.20;99.90;;;;;;5052749;28;20258;-73
2024/02/07 07:36:46;;;;;;;16.38;3.47;;;6.20;99.90;;;;;;5052262;28;20631;-73
2024/02/07 07:39:15;;;;;;;8.48;1.90;;;6.30;99.90;;;;;;5048402;28;20597;-72
2024/02/07 07:41:43;;;;;;;13.18;3.65;;;6.20;99.90;;;;;;5057630;28;20289;-80
2024/02/07 07:44:10;;;;;;;9.30;2.70;;;6.20;99.90;;;;;;5061910;28;20213;-79
2024/02/07 07:46:37;;;;;;;18.25;4.45;;;6.20;99.90;;;;;;5053092;28;20646;-79
2024/02/07 07:49:04;;;;;;;10.52;3.17;;;6.20;99.90;;;;;;5052996;28;20605;-79
2024/02/07 07:51:31;;;;;;;11.98;3.40;;;6.30;99.90;;;;;;5056556;28;20200;-79
2024/02/07 07:53:58;;;;;;;14.07;4.38;;;6.40;99.90;;;;;;5058808;28;20250;-79
2024/02/07 07:56:30;;;;;;;14.02;3.60;;;6.50;99.90;;;;;;5055381;28;20266;-78
2024/02/07 07:58:58;;;;;;;15.63;3.08;;;6.60;99.90;;;;;;5054354;28;20242;-79
2024/02/07 08:01:27;;;;;;;13.02;3.90;;;6.80;99.90;;;;;;5058604;28;20230;-78
2024/02/07 08:03:54;;;;;;;13.55;3.15;;;7.00;99.90;;;;;;5068156;28;20302;-80
2024/02/07 08:06:22;;;;;;;22.08;4.55;;;7.00;99.90;;;;;;5055576;28;20230;-79
2024/02/07 08:08:49;;;;;;;12.38;3.17;;;6.90;99.90;;;;;;5061577;28;20665;-77
2024/02/07 08:11:16;;;;;;;10.88;3.58;;;6.90;99.90;;;;;;5060609;28;20693;-79
2024/02/07 08:13:44;;;;;;;11.18;4.88;;;6.90;99.90;;;;;;5055208;28;20293;-78
2024/02/07 08:16:12;;;;;;;18.02;3.35;;;6.90;99.90;;;;;;5053875;28;20208;-80
2024/02/07 08:18:39;;;;;;;19.92;3.53;;;7.00;99.90;;;;;;5053200;28;20204;-74
2024/02/07 08:21:06;;;;;;;18.40;4.28;;;7.20;99.90;;;;;;5062579;28;20249;-73
2024/02/07 08:23:33;;;;;;;9.13;4.10;;;7.30;99.90;;;;;;5054081;28;20733;-75
2024/02/07 08:25:59;;;;;;;11.38;2.95;;;7.40;99.90;;;;;;5051720;28;20211;-73
2024/02/07 08:28:26;;;;;;;10.95;2.70;;;7.40;99.90;;;;;;5048867;28;20208;-74
2024/02/07 08:30:55;;;;;;;19.80;5.40;;;7.40;99.90;;;;;;5051257;28;20270;-73
2024/02/07 08:33:22;;;;;;;18.40;4.65;;;7.40;99.90;;;;;;5051999;28;20310;-74
2024/02/07 08:35:49;;;;;;;16.33;4.25;;;7.40;99.90;;;;;;5044529;28;20234;-73
2024/02/07 08:38:16;;;;;;;22.13;3.53;;;7.40;99.90;;;;;;5059286;28;20281;-73
2024/02/07 08:40:45;;;;;;;17.80;4.47;;;7.40;99.90;;;;;;5051860;28;20219;-73
2024/02/07 08:43:11;;;;;;;14.93;3.92;;;7.40;99.90;;;;;;5056797;28;20310;-73
2024/02/07 08:45:38;;;;;;;14.52;4.53;;;7.40;99.90;;;;;;5052306;28;20200;-73
2024/02/07 08:48:08;;;;;;;11.45;3.65;;;7.40;99.90;;;;;;5056785;28;20199;-73
2024/02/07 08:50:35;;;;;;;17.52;4.32;;;7.30;99.90;;;;;;5050343;28;20228;-74
2024/02/07 08:53:02;;;;;;;10.40;3.22;;;7.30;99.90;;;;;;5051542;28;20251;-74
2024/02/07 08:55:29;;;;;;;20.10;4.95;;;7.40;99.90;;;;;;5055011;28;20254;-74
2024/02/07 08:57:55;;;;;;;9.15;3.35;;;7.60;99.90;;;;;;5056337;28;20258;-73
2024/02/07 09:00:22;;;;;;;10.05;2.03;;;7.60;99.90;;;;;;5052068;28;20199;-73
2024/02/07 09:02:52;;;;;;;12.90;3.90;;;7.80;99.90;;;;;;5049623;28;20694;-73
2024/02/07 09:05:20;;;;;;;17.27;4.00;;;7.90;99.90;;;;;;5054839;28;20207;-76
2024/02/07 09:07:48;;;;;;;11.30;3.53;;;7.90;99.90;;;;;;5049865;28;20208;-74
2024/02/07 09:10:15;;;;;;;8.48;2.75;;;8.00;99.90;;;;;;5053494;28;20226;-75
2024/02/07 09:12:42;;;;;;;9.63;2.58;;;8.20;99.90;;;;;;5054977;28;20252;-72
2024/02/07 09:15:10;;;;;;;10.48;3.10;;;8.40;99.90;;;;;;5055677;28;20235;-74
2024/02/07 09:17:38;;;;;;;10.80;3.33;;;9.00;99.90;;;;;;5051031;28;20216;-74
2024/02/07 09:20:06;;;;;;;12.38;3.05;;;9.40;99.90;;;;;;5052356;28;20204;-74
2024/02/07 09:22:34;;;;;;;9.00;3.60;;;9.50;99.90;;;;;;5058618;28;20258;-74
2024/02/07 09:25:01;;;;;;;17.65;2.88;;;9.90;99.90;;;;;;5054995;28;20245;-73
2024/02/07 09:27:28;;;;;;;13.65;3.88;;;10.20;99.90;;;;;;5050810;28;20221;-73
2024/02/07 09:29:56;;;;;;;9.43;3.00;;;10.50;99.90;;;;;;5051604;28;20255;-73
2024/02/07 09:32:24;;;;;;;15.13;3.28;;;10.70;99.90;;;;;;5051691;28;20228;-73
2024/02/07 09:34:51;;;;;;;9.63;2.80;;;10.50;99.90;;;;;;5058591;28;20573;-75
2024/02/07 09:37:18;;;;;;;21.23;4.20;;;10.20;99.90;;;;;;5054378;28;20208;-74
2024/02/07 09:39:46;;;;;;;12.57;3.47;;;10.00;99.90;;;;;;5052050;28;21384;-73
2024/02/07 09:42:19;;;;;;;9.68;3.22;;;10.00;99.90;;;;;;5056332;28;20266;-74
2024/02/07 09:44:50;;;;;;;8.85;2.95;;;10.10;99.90;;;;;;5050934;28;20302;-73
2024/02/07 09:47:20;;;;;;;13.38;3.25;;;10.30;99.90;;;;;;5055726;28;20230;-74
2024/02/07 09:49:48;;;;;;;15.68;3.40;;;10.40;99.90;;;;;;5051844;28;20208;-74
2024/02/07 09:52:15;;;;;;;13.25;2.88;;;10.40;99.90;;;;;;5051119;28;20261;-74
2024/02/07 09:54:43;;;;;;;11.02;3.80;;;10.00;99.90;;;;;;5042761;28;20266;-74
2024/02/07 09:57:11;;;;;;;16.70;3.38;;;9.70;99.90;;;;;;5055435;28;20245;-75
2024/02/07 09:59:42;;;;;;;8.18;3.35;;;9.40;99.90;;;;;;5057672;28;20611;-75
2024/02/07 10:02:15;;;;;;;11.73;4.90;;;9.30;99.90;;;;;;5049784;28;20306;-74
2024/02/07 10:04:50;;;;;;;8.25;3.60;;;9.20;99.90;;;;;;5059164;28;20658;-74
2024/02/07 10:07:19;;;;;;;22.38;3.80;;;9.30;99.90;;;;;;5045198;28;20280;-75
2024/02/07 10:09:49;;;;;;;18.95;7.25;;;9.30;99.90;;;;;;5046049;28;20226;-74
2024/02/07 10:12:18;;;;;;;22.05;11.35;;;9.30;99.90;;;;;;5053941;28;20220;-75
2024/02/07 10:14:46;;;;;;;18.65;6.45;;;9.50;99.90;;;;;;5054284;28;20294;-75
2024/02/07 10:17:13;;;;;;;14.23;3.90;;;9.60;99.90;;;;;;5054457;28;20211;-74
2024/02/07 10:19:41;;;;;;;14.25;4.05;;;9.70;99.90;;;;;;5055295;28;20215;-75
2024/02/07 10:22:17;;;;;;;15.35;3.35;;;9.70;99.90;;;;;;5057927;28;20243;-73
2024/02/07 10:24:45;;;;;;;7.20;3.22;;;9.80;99.90;;;;;;5054900;28;20220;-75
2024/02/07 10:27:19;;;;;;;10.60;2.40;;;9.90;99.90;;;;;;5053404;28;20292;-74
2024/02/07 10:29:46;;;;;;;10.63;3.20;;;10.00;99.90;;;;;;5072137;28;20216;-74
2024/02/07 10:32:17;;;;;;;6.78;2.85;;;10.20;99.90;;;;;;5051934;28;20708;-74
2024/02/07 10:34:52;;;;;;;14.48;3.42;;;10.60;99.90;;;;;;5054711;28;20300;-73
2024/02/07 10:37:19;;;;;;;8.20;3.05;;;10.80;99.90;;;;;;5052884;28;20544;-76
2024/02/07 10:39:46;;;;;;;9.43;3.25;;;10.80;99.90;;;;;;5054379;28;20204;-75
2024/02/07 10:42:16;;;;;;;15.27;3.80;;;10.90;99.90;;;;;;5053547;28;20705;-75
2024/02/07 10:44:45;;;;;;;11.02;3.90;;;10.70;99.90;;;;;;5052537;28;20207;-75
2024/02/07 10:47:12;;;;;;;9.48;3.30;;;10.80;99.90;;;;;;5053395;28;20639;-74
2024/02/07 10:49:39;;;;;;;9.15;3.40;;;11.00;99.80;;;;;;5058424;28;20228;-73
2024/02/07 10:52:11;;;;;;;11.13;3.20;;;11.20;99.40;;;;;;5053035;28;20282;-74
2024/02/07 10:54:39;;;;;;;5.45;2.67;;;11.00;98.80;;;;;;5052258;28;20328;-75
2024/02/07 10:57:07;;;;;;;7.28;2.53;;;10.90;98.30;;;;;;5056978;28;20294;-73
2024/02/07 10:59:36;;;;;;;32.88;4.32;;;10.90;98.50;;;;;;5051878;28;20208;-74
2024/02/07 11:02:10;;;;;;;11.27;3.50;;;11.10;98.80;;;;;;5053129;28;20206;-74
2024/02/07 11:04:39;;;;;;;10.43;3.58;;;11.20;98.90;;;;;;5049729;28;20265;-72
2024/02/07 11:07:13;;;;;;;7.63;3.35;;;11.40;98.20;;;;;;5055290;28;20291;-75
2024/02/07 11:09:43;;;;;;;9.95;2.40;;;11.20;98.40;;;;;;5050637;28;20212;-74
2024/02/07 11:12:11;;;;;;;11.18;3.40;;;11.20;98.50;;;;;;5058782;28;20229;-76
2024/02/07 11:14:39;;;;;;;8.88;3.72;;;11.30;98.20;;;;;;5064387;28;20204;-74
2024/02/07 11:17:09;;;;;;;5.20;2.78;;;10.80;97.80;;;;;;5053696;28;20200;-74
2024/02/07 11:19:36;;;;;;;10.10;2.85;;;10.40;98.40;;;;;;5051171;28;20200;-75
2024/02/07 11:22:06;;;;;;;12.10;4.07;;;10.40;99.00;;;;;;5050963;28;20208;-75
2024/02/07 11:24:34;;;;;;;7.97;3.38;;;10.20;98.70;;;;;;5056281;28;20211;-74
2024/02/07 11:27:02;;;;;;;11.95;2.70;;;9.90;99.70;;;;;;5051907;28;20224;-74
2024/02/07 11:29:29;;;;;;;11.40;3.08;;;9.80;99.70;;;;;;5053699;28;20261;-75
2024/02/07 11:31:56;;;;;;;7.00;2.92;;;9.70;99.90;;;;;;5052238;28;20224;-77
2024/02/07 11:34:27;;;;;;;11.93;2.85;;;9.60;99.90;;;;;;5049183;28;20232;-75
2024/02/07 11:36:54;;;;;;;7.05;2.67;;;9.60;99.90;;;;;;5055795;28;20247;-74
2024/02/07 11:39:22;;;;;;;10.73;2.75;;;9.70;99.90;;;;;;5051156;28;20211;-74
2024/02/07 11:41:49;;;;;;;9.35;2.88;;;9.70;99.90;;;;;;5056519;28;20204;-75
2024/02/07 11:44:16;;;;;;;15.60;2.65;;;9.70;99.90;;;;;;5057916;28;20200;-76
2024/02/07 11:46:50;;;;;;;16.30;4.97;;;9.60;99.90;;;;;;5051818;28;20245;-75
2024/02/07 11:49:18;;;;;;;10.05;4.00;;;9.40;99.90;;;;;;5053236;28;20286;-75
2024/02/07 11:51:46;;;;;;;11.88;2.63;;;9.40;99.90;;;;;;5053780;28;20227;-75
2024/02/07 11:54:21;;;;;;;8.73;3.47;;;9.40;99.90;;;;;;5051786;28;20235;-74
2024/02/07 11:56:55;;;;;;;10.23;2.33;;;9.50;99.90;;;;;;5052391;28;20204;-75
2024/02/07 11:59:22;;;;;;;7.90;2.35;;;9.30;99.10;;;;;;5055587;28;20203;-76
2024/02/07 12:01:49;;;;;;;11.02;3.55;;;9.30;99.10;;;;;;5051065;28;20266;-76
2024/02/07 12:04:17;;;;;;;10.65;3.42;;;9.30;98.80;;;;;;5052482;28;20728;-74
2024/02/07 12:06:44;;;;;;;11.50;5.18;;;9.30;98.60;;;;;;5055852;28;20228;-74
2024/02/07 12:09:12;;;;;;;9.00;2.55;;;9.20;98.60;;;;;;5052209;28;20704;-74
2024/02/07 12:11:40;;;;;;;7.80;2.60;;;9.20;98.50;;;;;;5051883;28;20633;-74
2024/02/07 12:14:07;;;;;;;11.18;2.78;;;9.20;98.60;;;;;;5053816;28;20282;-74
2024/02/07 12:16:35;;;;;;;11.55;2.75;;;9.30;98.60;;;;;;5051874;28;20299;-76
2024/02/07 12:19:02;;;;;;;12.10;3.55;;;9.30;98.70;;;;;;5050350;28;20250;-73
2024/02/07 12:21:28;;;;;;;8.60;2.55;;;9.30;99.00;;;;;;5050404;28;20200;-75
2024/02/07 12:23:55;;;;;;;15.13;3.05;;;9.40;98.10;;;;;;5047539;28;20231;-74
2024/02/07 12:26:25;;;;;;;8.18;3.67;;;9.50;98.00;;;;;;5051723;28;20652;-75
2024/02/07 12:28:55;;;;;;;7.05;2.50;;;9.60;97.80;;;;;;5051432;28;20546;-76
2024/02/07 12:31:24;;;;;;;13.82;3.97;;;9.60;97.10;;;;;;5047832;28;20631;-73
2024/02/07 12:33:51;;;;;;;27.63;13.35;;;9.50;97.30;;;;;;5054617;28;20226;-75
2024/02/07 12:36:18;;;;;;;133.40;62.75;;;9.40;97.50;;;;;;5055818;28;20205;-77
2024/02/07 12:38:45;;;;;;;50.00;24.90;;;9.40;97.10;;;;;;5049517;28;20230;-75
2024/02/07 12:41:12;;;;;;;31.63;16.08;;;9.40;97.30;;;;;;5045251;28;20215;-76
2024/02/07 12:43:40;;;;;;;55.75;37.63;;;9.40;97.40;;;;;;5053611;28;20305;-74
2024/02/07 12:46:07;;;;;;;13.68;7.93;;;9.40;97.10;;;;;;5050058;28;20282;-75
2024/02/07 12:48:34;;;;;;;11.70;2.95;;;9.40;97.00;;;;;;5049534;28;20212;-73
2024/02/07 12:51:02;;;;;;;10.50;2.85;;;9.40;97.00;;;;;;5050884;28;20224;-75
2024/02/07 12:53:29;;;;;;;10.98;3.00;;;9.40;96.60;;;;;;5047857;28;20255;-73
2024/02/07 12:55:56;;;;;;;16.30;3.58;;;9.30;97.10;;;;;;5045252;28;20208;-75
2024/02/07 12:58:23;;;;;;;5.55;2.10;;;9.10;96.50;;;;;;5046892;28;20262;-74
2024/02/07 13:01:01;;;;;;;10.77;2.13;;;9.00;96.30;;;;;;5050260;28;20258;-74
2024/02/07 13:03:28;;;;;;;8.23;2.17;;;9.00;95.50;;;;;;5050169;28;20310;-74
2024/02/07 13:05:55;;;;;;;5.38;1.98;;;8.80;94.80;;;;;;5051031;28;20228;-74
2024/02/07 13:08:22;;;;;;;8.93;2.28;;;8.70;95.10;;;;;;5053320;28;20231;-74
2024/02/07 13:10:49;;;;;;;5.30;3.70;;;8.70;95.60;;;;;;5051263;28;20212;-75
2024/02/07 13:13:16;;;;;;;7.72;3.13;;;8.70;95.60;;;;;;5054027;28;20255;-74
2024/02/07 13:15:43;;;;;;;9.10;2.05;;;8.70;96.10;;;;;;5051041;28;20531;-74
2024/02/07 13:18:11;;;;;;;9.52;1.90;;;8.70;95.90;;;;;;5057707;28;20255;-74
2024/02/07 13:20:38;;;;;;;13.60;3.15;;;8.80;95.80;;;;;;5050790;28;20204;-73
2024/02/07 13:23:05;;;;;;;6.45;2.50;;;8.90;95.60;;;;;;5055472;28;20246;-74
2024/02/07 13:25:32;;;;;;;16.38;4.03;;;9.00;95.30;;;;;;5059181;28;20216;-74
2024/02/07 13:27:59;;;;;;;9.93;2.30;;;8.90;94.10;;;;;;5050925;28;20665;-75
2024/02/07 13:30:26;;;;;;;11.95;2.67;;;8.90;94.00;;;;;;5053148;28;20961;-75
2024/02/07 13:32:53;;;;;;;9.45;2.80;;;8.80;93.80;;;;;;5051680;28;20307;-73
2024/02/07 13:35:22;;;;;;;3.88;2.25;;;8.80;94.30;;;;;;5051889;28;20262;-74
2024/02/07 13:37:50;;;;;;;4.72;1.35;;;8.80;94.10;;;;;;5056589;28;20290;-74
2024/02/07 13:40:17;;;;;;;11.93;1.83;;;8.80;93.90;;;;;;5051414;28;20567;-75
2024/02/07 13:42:44;;;;;;;9.02;5.22;;;8.70;93.80;;;;;;5055827;28;20226;-75
2024/02/07 13:45:11;;;;;;;5.28;1.70;;;8.80;93.90;;;;;;5058136;28;20231;-73
2024/02/07 13:47:38;;;;;;;6.65;1.90;;;8.70;93.80;;;;;;5056839;28;20240;-73
2024/02/07 13:50:06;;;;;;;5.53;1.92;;;8.80;93.70;;;;;;5051543;28;20634;-75
2024/02/07 13:52:36;;;;;;;80.70;39.63;;;8.70;93.00;;;;;;5054827;28;20255;-74
2024/02/07 13:55:03;;;;;;;9.48;5.82;;;8.80;94.40;;;;;;5065607;28;20282;-73
2024/02/07 13:57:30;;;;;;;9.20;3.50;;;8.80;93.50;;;;;;5061536;28;20250;-76
2024/02/07 13:59:57;;;;;;;4.30;2.83;;;8.90;93.80;;;;;;5064514;28;20258;-74
2024/02/07 14:02:24;;;;;;;6.60;2.60;;;8.90;92.90;;;;;;5055356;28;20576;-74
2024/02/07 14:04:51;;;;;;;5.70;2.13;;;8.80;92.70;;;;;;5053882;28;20304;-75
2024/02/07 14:07:20;;;;;;;4.30;1.90;;;8.70;93.10;;;;;;5056058;28;20246;-73
2024/02/07 14:09:49;;;;;;;7.65;1.90;;;8.70;93.20;;;;;;5054233;28;20287;-76
2024/02/07 14:12:16;;;;;;;14.02;3.90;;;8.60;93.10;;;;;;5054441;28;20228;-74
2024/02/07 14:14:43;;;;;;;9.23;2.42;;;8.70;93.40;;;;;;5053934;28;20289;-73
2024/02/07 14:17:10;;;;;;;11.50;3.65;;;8.70;93.70;;;;;;5054909;28;20204;-74
2024/02/07 14:19:37;;;;;;;9.98;3.15;;;8.70;93.20;;;;;;5052728;28;20200;-74
2024/02/07 14:22:04;;;;;;;7.38;2.65;;;8.80;93.40;;;;;;5053831;28;20700;-75
2024/02/07 14:24:33;;;;;;;8.20;4.38;;;8.80;93.50;;;;;;5053321;28;20212;-73
2024/02/07 14:27:01;;;;;;;5.75;3.15;;;8.90;93.70;;;;;;5050743;28;20278;-74
2024/02/07 14:29:28;;;;;;;14.32;6.75;;;8.90;93.60;;;;;;5055332;28;20233;-74
2024/02/07 14:31:55;;;;;;;7.03;2.45;;;8.90;93.30;;;;;;5053350;28;20223;-75
2024/02/07 14:34:22;;;;;;;16.02;2.15;;;9.00;93.60;;;;;;5052967;28;20262;-73
2024/02/07 14:36:50;;;;;;;8.65;1.80;;;9.10;93.40;;;;;;5058379;28;20224;-75
2024/02/07 14:39:18;;;;;;;6.35;2.45;;;9.10;93.00;;;;;;5061032;28;20247;-70
2024/02/07 14:41:45;;;;;;;13.07;3.55;;;9.10;93.30;;;;;;5053920;28;20298;-74
2024/02/07 14:44:13;;;;;;;8.40;3.03;;;9.10;93.70;;;;;;5059693;28;20314;-75
2024/02/07 14:46:41;;;;;;;13.98;3.30;;;9.00;93.90;;;;;;5054035;28;20204;-74